HKE842 VHHH-ROAH
Flight info
| Callsign | HKE842 |
|---|---|
| Flight time | 1h 54m |
| Altitude | 35000 |
| Route | DALOL V631 ENVAR M750 KUDOS R595 MJC Y57 VELNO |
| Aircraft | A320/M-SDE3FGHIRWY/LB1 |
Departure
| Time | 2026-04-25 23:43 |
|---|---|
| Airport | Hong Kong International Airport (VHHH) |
Arrival
| Time | 2026-04-26 01:37 |
|---|---|
| Airport | Naha International Airport (ROAH) |
| Time | Latitude | Longitude | Altitude | Speed | Heading |
|---|---|---|---|---|---|
| 2026-04-25 23:26 | 22.30881 | 113.91900 | 32 ft | 0 kts | 250° |
| 2026-04-25 23:34 | 22.30882 | 113.91903 | 31 ft | 3 kts | 250° |
| 2026-04-25 23:34 | 22.30890 | 113.91930 | 32 ft | 4 kts | 260° |
| 2026-04-25 23:34 | 22.30892 | 113.91958 | 32 ft | 2 kts | 269° |
| 2026-04-25 23:34 | 22.30892 | 113.91961 | 32 ft | 0 kts | 269° |
| 2026-04-25 23:37 | 22.30893 | 113.91958 | 32 ft | 0 kts | 288° |
| 2026-04-25 23:37 | 22.30902 | 113.91958 | 18 ft | 4 kts | 353° |
| 2026-04-25 23:37 | 22.30957 | 113.91971 | 30 ft | 13 kts | 7° |
| 2026-04-25 23:37 | 22.31069 | 113.91938 | 32 ft | 21 kts | 340° |
| 2026-04-25 23:38 | 22.31222 | 113.91880 | 32 ft | 25 kts | 341° |
| 2026-04-25 23:38 | 22.31376 | 113.91823 | 32 ft | 23 kts | 341° |
| 2026-04-25 23:38 | 22.31505 | 113.91772 | 32 ft | 11 kts | 332° |
| 2026-04-25 23:38 | 22.31508 | 113.91688 | 31 ft | 15 kts | 246° |
| 2026-04-25 23:39 | 22.31473 | 113.91558 | 32 ft | 21 kts | 255° |
| 2026-04-25 23:39 | 22.31442 | 113.91448 | 31 ft | 25 kts | 251° |
| 2026-04-25 23:39 | 22.31375 | 113.91250 | 32 ft | 31 kts | 250° |
| 2026-04-25 23:39 | 22.31297 | 113.91012 | 30 ft | 36 kts | 251° |
| 2026-04-25 23:40 | 22.31214 | 113.90754 | 32 ft | 37 kts | 251° |
| 2026-04-25 23:40 | 22.31129 | 113.90489 | 31 ft | 38 kts | 251° |
| 2026-04-25 23:40 | 22.31042 | 113.90218 | 32 ft | 39 kts | 251° |
| 2026-04-25 23:40 | 22.30982 | 113.90029 | 32 ft | 24 kts | 251° |
| 2026-04-25 23:41 | 22.30962 | 113.89900 | 32 ft | 13 kts | 311° |
| 2026-04-25 23:41 | 22.30995 | 113.89888 | 32 ft | 2 kts | 345° |
| 2026-04-25 23:41 | 22.31011 | 113.89883 | 31 ft | 6 kts | 345° |
| 2026-04-25 23:41 | 22.31074 | 113.89865 | 30 ft | 12 kts | 349° |
| 2026-04-25 23:42 | 22.31110 | 113.89916 | 30 ft | 8 kts | 60° |
| 2026-04-25 23:42 | 22.31152 | 113.89989 | 30 ft | 21 kts | 68° |
| 2026-04-25 23:42 | 22.31277 | 113.90374 | 31 ft | 86 kts | 70° |
| 2026-04-25 23:42 | 22.31532 | 113.91169 | 32 ft | 135 kts | 71° |
| 2026-04-25 23:43 | 22.31889 | 113.92262 | 84 ft | 170 kts | 71° |
| 2026-04-25 23:43 | 22.32271 | 113.93436 | 735 ft | 165 kts | 71° |
| 2026-04-25 23:43 | 22.32654 | 113.94616 | 1415 ft | 165 kts | 70° |
| 2026-04-25 23:43 | 22.33032 | 113.95768 | 2022 ft | 165 kts | 72° |
| 2026-04-25 23:44 | 22.33361 | 113.96955 | 2561 ft | 166 kts | 79° |
| 2026-04-25 23:44 | 22.33563 | 113.98186 | 3088 ft | 167 kts | 79° |
| 2026-04-25 23:44 | 22.33778 | 113.99471 | 3404 ft | 184 kts | 79° |
| 2026-04-25 23:44 | 22.34018 | 114.00914 | 3615 ft | 206 kts | 79° |
| 2026-04-25 23:45 | 22.34282 | 114.02505 | 3944 ft | 222 kts | 80° |
| 2026-04-25 23:45 | 22.34388 | 114.04206 | 4440 ft | 236 kts | 98° |
| 2026-04-25 23:45 | 22.33898 | 114.05923 | 5074 ft | 243 kts | 119° |
| 2026-04-25 23:45 | 22.32865 | 114.07363 | 5790 ft | 246 kts | 140° |
| 2026-04-25 23:46 | 22.31402 | 114.08325 | 6516 ft | 249 kts | 161° |
| 2026-04-25 23:46 | 22.29695 | 114.08657 | 7174 ft | 252 kts | 181° |
| 2026-04-25 23:46 | 22.27927 | 114.08663 | 7880 ft | 256 kts | 181° |
| 2026-04-25 23:46 | 22.26135 | 114.08676 | 8571 ft | 259 kts | 180° |
| 2026-04-25 23:47 | 22.24313 | 114.08692 | 9190 ft | 269 kts | 181° |
| 2026-04-25 23:47 | 22.22361 | 114.08686 | 9445 ft | 291 kts | 182° |
| 2026-04-25 23:47 | 22.20294 | 114.08672 | 9967 ft | 302 kts | 179° |
| 2026-04-25 23:47 | 22.18174 | 114.09052 | 10265 ft | 321 kts | 161° |
| 2026-04-25 23:48 | 22.16132 | 114.10199 | 10377 ft | 343 kts | 142° |
| 2026-04-25 23:48 | 22.14474 | 114.12119 | 10647 ft | 357 kts | 122° |
| 2026-04-25 23:48 | 22.13303 | 114.14503 | 11145 ft | 362 kts | 116° |
| 2026-04-25 23:48 | 22.12153 | 114.16945 | 11673 ft | 368 kts | 116° |
| 2026-04-25 23:49 | 22.10980 | 114.19409 | 12257 ft | 371 kts | 116° |
| 2026-04-25 23:49 | 22.09794 | 114.21889 | 12858 ft | 374 kts | 116° |
| 2026-04-25 23:49 | 22.08544 | 114.24363 | 13396 ft | 378 kts | 122° |
| 2026-04-25 23:49 | 22.06902 | 114.26601 | 13928 ft | 383 kts | 134° |
| 2026-04-25 23:50 | 22.04862 | 114.28465 | 14444 ft | 386 kts | 143° |
| 2026-04-25 23:50 | 22.02687 | 114.30169 | 15018 ft | 388 kts | 143° |
| 2026-04-25 23:50 | 22.00497 | 114.31892 | 15501 ft | 391 kts | 143° |
| 2026-04-25 23:50 | 21.98295 | 114.33630 | 15988 ft | 394 kts | 142° |
| 2026-04-25 23:51 | 21.96075 | 114.35384 | 16483 ft | 397 kts | 142° |
| 2026-04-25 23:51 | 21.93840 | 114.37146 | 16995 ft | 399 kts | 142° |
| 2026-04-25 23:51 | 21.91589 | 114.38915 | 17504 ft | 402 kts | 142° |
| 2026-04-25 23:51 | 21.89320 | 114.40700 | 17961 ft | 406 kts | 142° |
| 2026-04-25 23:52 | 21.87158 | 114.42660 | 18411 ft | 407 kts | 132° |
| 2026-04-25 23:52 | 21.85371 | 114.45025 | 18807 ft | 408 kts | 121° |
| 2026-04-25 23:52 | 21.84034 | 114.47715 | 19200 ft | 409 kts | 110° |
| 2026-04-25 23:52 | 21.83161 | 114.50629 | 19584 ft | 411 kts | 103° |
| 2026-04-25 23:53 | 21.82403 | 114.53607 | 19971 ft | 414 kts | 103° |
| 2026-04-25 23:53 | 21.81633 | 114.56612 | 20374 ft | 418 kts | 103° |
| 2026-04-25 23:53 | 21.80853 | 114.59639 | 20763 ft | 422 kts | 104° |
| 2026-04-25 23:53 | 21.80062 | 114.62694 | 21160 ft | 425 kts | 104° |
| 2026-04-25 23:54 | 21.79261 | 114.65773 | 21517 ft | 430 kts | 104° |
| 2026-04-25 23:54 | 21.78463 | 114.68840 | 21878 ft | 433 kts | 104° |
| 2026-04-25 23:54 | 21.77646 | 114.71975 | 22242 ft | 437 kts | 104° |
| 2026-04-25 23:54 | 21.76823 | 114.75134 | 22606 ft | 440 kts | 104° |
| 2026-04-25 23:55 | 21.75991 | 114.78318 | 22966 ft | 444 kts | 105° |
| 2026-04-25 23:55 | 21.75151 | 114.81525 | 23322 ft | 447 kts | 104° |
| 2026-04-25 23:55 | 21.74505 | 114.84804 | 23654 ft | 450 kts | 96° |
| 2026-04-25 23:55 | 21.74350 | 114.88165 | 23951 ft | 451 kts | 88° |
| 2026-04-25 23:56 | 21.74370 | 114.91546 | 24271 ft | 453 kts | 88° |
| 2026-04-25 23:56 | 21.74379 | 114.94943 | 24605 ft | 455 kts | 88° |
| 2026-04-25 23:56 | 21.74381 | 114.98358 | 24945 ft | 458 kts | 88° |
| 2026-04-25 23:56 | 21.74378 | 115.01783 | 25291 ft | 459 kts | 88° |
| 2026-04-25 23:57 | 21.74371 | 115.05229 | 25613 ft | 462 kts | 88° |
| 2026-04-25 23:57 | 21.74364 | 115.08689 | 25930 ft | 464 kts | 88° |
| 2026-04-25 23:57 | 21.74357 | 115.12165 | 26249 ft | 466 kts | 88° |
| 2026-04-25 23:57 | 21.74350 | 115.15658 | 26570 ft | 468 kts | 88° |
| 2026-04-25 23:58 | 21.74344 | 115.19169 | 26893 ft | 471 kts | 88° |
| 2026-04-25 23:58 | 21.74341 | 115.22697 | 27225 ft | 473 kts | 88° |
| 2026-04-25 23:58 | 21.74338 | 115.26241 | 27557 ft | 475 kts | 88° |
| 2026-04-25 23:58 | 21.74335 | 115.29804 | 27889 ft | 477 kts | 88° |
| 2026-04-25 23:59 | 21.74328 | 115.33381 | 28220 ft | 480 kts | 87° |
| 2026-04-25 23:59 | 21.74319 | 115.36983 | 28508 ft | 483 kts | 87° |
| 2026-04-25 23:59 | 21.74309 | 115.40607 | 28815 ft | 485 kts | 87° |
| 2026-04-25 23:59 | 21.74296 | 115.44231 | 29254 ft | 484 kts | 87° |
| 2026-04-26 00:00 | 21.74284 | 115.47809 | 29700 ft | 484 kts | 87° |
| 2026-04-26 00:00 | 21.74273 | 115.51422 | 30138 ft | 483 kts | 87° |
| 2026-04-26 00:00 | 21.74260 | 115.55034 | 30518 ft | 483 kts | 87° |
| 2026-04-26 00:00 | 21.74247 | 115.58641 | 30891 ft | 482 kts | 87° |
| 2026-04-26 00:01 | 21.74233 | 115.62246 | 31261 ft | 482 kts | 87° |
| 2026-04-26 00:01 | 21.74219 | 115.65848 | 31622 ft | 482 kts | 87° |
| 2026-04-26 00:01 | 21.74204 | 115.69453 | 31975 ft | 482 kts | 87° |
| 2026-04-26 00:01 | 21.74189 | 115.73057 | 32351 ft | 482 kts | 88° |
| 2026-04-26 00:02 | 21.74176 | 115.76656 | 32730 ft | 481 kts | 88° |
| 2026-04-26 00:02 | 21.74162 | 115.80251 | 33109 ft | 481 kts | 88° |
| 2026-04-26 00:02 | 21.74147 | 115.83843 | 33495 ft | 480 kts | 88° |
| 2026-04-26 00:02 | 21.74129 | 115.87432 | 33880 ft | 480 kts | 88° |
| 2026-04-26 00:03 | 21.74110 | 115.91020 | 34214 ft | 480 kts | 88° |
| 2026-04-26 00:03 | 21.74090 | 115.94607 | 34482 ft | 480 kts | 88° |
| 2026-04-26 00:03 | 21.74068 | 115.98208 | 34702 ft | 482 kts | 88° |
| 2026-04-26 00:03 | 21.74043 | 116.01821 | 34918 ft | 484 kts | 88° |
| 2026-04-26 00:04 | 21.74017 | 116.05450 | 35023 ft | 487 kts | 88° |
| 2026-04-26 00:04 | 21.73975 | 116.12833 | 35042 ft | 498 kts | 88° |
| 2026-04-26 00:05 | 21.73924 | 116.20295 | 35047 ft | 500 kts | 88° |
| 2026-04-26 00:05 | 21.73868 | 116.27776 | 35042 ft | 500 kts | 88° |
| 2026-04-26 00:06 | 21.73809 | 116.35264 | 35044 ft | 501 kts | 88° |
| 2026-04-26 00:06 | 21.73749 | 116.42761 | 35046 ft | 501 kts | 88° |
| 2026-04-26 00:07 | 21.73688 | 116.50263 | 35053 ft | 502 kts | 88° |
| 2026-04-26 00:07 | 21.73616 | 116.57770 | 35059 ft | 502 kts | 88° |
| 2026-04-26 00:08 | 21.73539 | 116.65231 | 35055 ft | 503 kts | 88° |
| 2026-04-26 00:08 | 21.73464 | 116.72747 | 35051 ft | 503 kts | 88° |
| 2026-04-26 00:09 | 21.74205 | 116.80152 | 35079 ft | 495 kts | 71° |
| 2026-04-26 00:09 | 21.76523 | 116.87057 | 35066 ft | 490 kts | 64° |
| 2026-04-26 00:10 | 21.79001 | 116.93899 | 35051 ft | 491 kts | 64° |
| 2026-04-26 00:10 | 21.81472 | 117.00750 | 35048 ft | 491 kts | 64° |
| 2026-04-26 00:11 | 21.83950 | 117.07610 | 35049 ft | 492 kts | 64° |
| 2026-04-26 00:11 | 21.86424 | 117.14473 | 35051 ft | 492 kts | 64° |
| 2026-04-26 00:12 | 21.88897 | 117.21349 | 35043 ft | 493 kts | 64° |
| 2026-04-26 00:12 | 21.91368 | 117.28242 | 35038 ft | 494 kts | 64° |
| 2026-04-26 00:13 | 21.93850 | 117.35144 | 35068 ft | 494 kts | 64° |
| 2026-04-26 00:13 | 21.96334 | 117.42047 | 35068 ft | 494 kts | 64° |
| 2026-04-26 00:14 | 21.98820 | 117.48940 | 35068 ft | 492 kts | 61° |
| 2026-04-26 00:14 | 22.02142 | 117.55237 | 35059 ft | 486 kts | 53° |
| 2026-04-26 00:15 | 22.05684 | 117.61446 | 35058 ft | 486 kts | 53° |
| 2026-04-26 00:15 | 22.09214 | 117.67672 | 35057 ft | 487 kts | 53° |
| 2026-04-26 00:16 | 22.12745 | 117.73907 | 35060 ft | 487 kts | 53° |
| 2026-04-26 00:16 | 22.16280 | 117.80144 | 35080 ft | 487 kts | 53° |
| 2026-04-26 00:17 | 22.19810 | 117.86378 | 35079 ft | 487 kts | 53° |
| 2026-04-26 00:17 | 22.23324 | 117.92615 | 35074 ft | 486 kts | 53° |
| 2026-04-26 00:18 | 22.26836 | 117.98847 | 35072 ft | 486 kts | 53° |
| 2026-04-26 00:18 | 22.30377 | 118.05050 | 35073 ft | 485 kts | 52° |
| 2026-04-26 00:19 | 22.33988 | 118.11196 | 35065 ft | 485 kts | 52° |
| 2026-04-26 00:19 | 22.37612 | 118.17349 | 35086 ft | 486 kts | 52° |
| 2026-04-26 00:20 | 22.41217 | 118.23527 | 35075 ft | 486 kts | 52° |
| 2026-04-26 00:20 | 22.44755 | 118.29760 | 35070 ft | 487 kts | 53° |
| 2026-04-26 00:21 | 22.48258 | 118.36025 | 35064 ft | 487 kts | 53° |
| 2026-04-26 00:21 | 22.51777 | 118.42281 | 35051 ft | 487 kts | 53° |
| 2026-04-26 00:22 | 22.55320 | 118.48536 | 35047 ft | 488 kts | 53° |
| 2026-04-26 00:22 | 22.58842 | 118.54755 | 35046 ft | 488 kts | 53° |
| 2026-04-26 00:23 | 22.62408 | 118.61011 | 35049 ft | 489 kts | 53° |
| 2026-04-26 00:23 | 22.65986 | 118.67269 | 35053 ft | 489 kts | 53° |
| 2026-04-26 00:24 | 22.69559 | 118.73542 | 35037 ft | 490 kts | 53° |
| 2026-04-26 00:24 | 22.73129 | 118.79835 | 35033 ft | 491 kts | 53° |
| 2026-04-26 00:25 | 22.76701 | 118.86144 | 35035 ft | 491 kts | 53° |
| 2026-04-26 00:25 | 22.80279 | 118.92462 | 35068 ft | 492 kts | 53° |
| 2026-04-26 00:26 | 22.83860 | 118.98784 | 35055 ft | 493 kts | 53° |
| 2026-04-26 00:26 | 22.87450 | 119.05132 | 35043 ft | 494 kts | 53° |
| 2026-04-26 00:27 | 22.91036 | 119.11488 | 35039 ft | 494 kts | 53° |
| 2026-04-26 00:27 | 22.94620 | 119.17861 | 35042 ft | 495 kts | 53° |
| 2026-04-26 00:28 | 22.98202 | 119.24242 | 35047 ft | 495 kts | 53° |
| 2026-04-26 00:28 | 23.01801 | 119.30624 | 35068 ft | 496 kts | 53° |
| 2026-04-26 00:29 | 23.04794 | 119.35944 | 35057 ft | 497 kts | 53° |
| 2026-04-26 00:29 | 23.08385 | 119.42358 | 35052 ft | 497 kts | 53° |
| 2026-04-26 00:30 | 23.11975 | 119.48772 | 35046 ft | 497 kts | 53° |
| 2026-04-26 00:30 | 23.15571 | 119.55192 | 35039 ft | 498 kts | 53° |
| 2026-04-26 00:31 | 23.19170 | 119.61627 | 35008 ft | 499 kts | 54° |
| 2026-04-26 00:31 | 23.22781 | 119.68092 | 35057 ft | 500 kts | 53° |
| 2026-04-26 00:32 | 23.26385 | 119.74554 | 35054 ft | 500 kts | 53° |
| 2026-04-26 00:32 | 23.31786 | 119.84254 | 35051 ft | 500 kts | 53° |
| 2026-04-26 00:33 | 23.35420 | 119.90697 | 35031 ft | 498 kts | 49° |
| 2026-04-26 00:33 | 23.39975 | 119.96224 | 35028 ft | 487 kts | 37° |
| 2026-04-26 00:34 | 23.44885 | 120.01256 | 35063 ft | 488 kts | 37° |
| 2026-04-26 00:34 | 23.49819 | 120.06326 | 35060 ft | 487 kts | 37° |
| 2026-04-26 00:35 | 23.54737 | 120.11403 | 35057 ft | 487 kts | 37° |
| 2026-04-26 00:35 | 23.59655 | 120.16486 | 35030 ft | 488 kts | 37° |
| 2026-04-26 00:36 | 23.64592 | 120.21580 | 35050 ft | 489 kts | 37° |
| 2026-04-26 00:36 | 23.69529 | 120.26688 | 35055 ft | 489 kts | 37° |
| 2026-04-26 00:37 | 23.74465 | 120.31801 | 35059 ft | 489 kts | 37° |
| 2026-04-26 00:37 | 23.79395 | 120.36911 | 35061 ft | 489 kts | 37° |
| 2026-04-26 00:38 | 23.84323 | 120.42024 | 35049 ft | 489 kts | 37° |
| 2026-04-26 00:38 | 23.89263 | 120.47160 | 35061 ft | 491 kts | 37° |
| 2026-04-26 00:39 | 23.94200 | 120.52321 | 35060 ft | 491 kts | 37° |
| 2026-04-26 00:39 | 23.99118 | 120.57515 | 35070 ft | 492 kts | 38° |
| 2026-04-26 00:40 | 24.04001 | 120.62687 | 35078 ft | 492 kts | 38° |
| 2026-04-26 00:40 | 24.08918 | 120.67885 | 35081 ft | 492 kts | 38° |
| 2026-04-26 00:41 | 24.13821 | 120.73068 | 35094 ft | 488 kts | 38° |
| 2026-04-26 00:41 | 24.18697 | 120.78232 | 35095 ft | 487 kts | 38° |
| 2026-04-26 00:42 | 24.23570 | 120.83390 | 35089 ft | 487 kts | 38° |
| 2026-04-26 00:42 | 24.28431 | 120.88556 | 35088 ft | 487 kts | 38° |
| 2026-04-26 00:43 | 24.33293 | 120.93723 | 35110 ft | 487 kts | 38° |
| 2026-04-26 00:43 | 24.38156 | 120.98892 | 35117 ft | 487 kts | 38° |
| 2026-04-26 00:44 | 24.42842 | 121.04286 | 35098 ft | 493 kts | 46° |
| 2026-04-26 00:44 | 24.47108 | 121.10189 | 35094 ft | 494 kts | 46° |
| 2026-04-26 00:45 | 24.51386 | 121.16087 | 35095 ft | 494 kts | 46° |
| 2026-04-26 00:45 | 24.55664 | 121.21982 | 35128 ft | 493 kts | 46° |
| 2026-04-26 00:46 | 24.59923 | 121.27870 | 35107 ft | 492 kts | 46° |
| 2026-04-26 00:46 | 24.64182 | 121.33756 | 35098 ft | 492 kts | 46° |
| 2026-04-26 00:47 | 24.68416 | 121.39618 | 35094 ft | 493 kts | 46° |
| 2026-04-26 00:47 | 24.72682 | 121.45527 | 35090 ft | 493 kts | 46° |
| 2026-04-26 00:48 | 24.76943 | 121.51447 | 35081 ft | 493 kts | 46° |
| 2026-04-26 00:48 | 24.81214 | 121.57384 | 35042 ft | 497 kts | 47° |
| 2026-04-26 00:49 | 24.85512 | 121.63376 | 35044 ft | 500 kts | 47° |
| 2026-04-26 00:49 | 24.89829 | 121.69397 | 35046 ft | 501 kts | 46° |
| 2026-04-26 00:50 | 24.94305 | 121.75284 | 35095 ft | 500 kts | 44° |
| 2026-04-26 00:50 | 24.98909 | 121.81018 | 35088 ft | 499 kts | 44° |
| 2026-04-26 00:51 | 25.03501 | 121.86765 | 35042 ft | 501 kts | 44° |
| 2026-04-26 00:51 | 25.08006 | 121.92661 | 35033 ft | 507 kts | 51° |
| 2026-04-26 00:52 | 25.11166 | 121.99661 | 35042 ft | 516 kts | 71° |
| 2026-04-26 00:52 | 25.12277 | 122.07470 | 35082 ft | 518 kts | 90° |
| 2026-04-26 00:53 | 25.11775 | 122.15334 | 35069 ft | 517 kts | 97° |
| 2026-04-26 00:53 | 25.11105 | 122.23242 | 35059 ft | 518 kts | 97° |
| 2026-04-26 00:54 | 25.10428 | 122.31161 | 35053 ft | 518 kts | 97° |
| 2026-04-26 00:54 | 25.09685 | 122.39065 | 35039 ft | 518 kts | 99° |
| 2026-04-26 00:55 | 25.08888 | 122.46976 | 35040 ft | 519 kts | 99° |
| 2026-04-26 00:55 | 25.08107 | 122.54905 | 35040 ft | 520 kts | 99° |
| 2026-04-26 00:56 | 25.07338 | 122.62843 | 35015 ft | 521 kts | 99° |
| 2026-04-26 00:56 | 25.06570 | 122.70793 | 35029 ft | 521 kts | 100° |
| 2026-04-26 00:57 | 25.05787 | 122.78744 | 35037 ft | 522 kts | 100° |
| 2026-04-26 00:57 | 25.04998 | 122.86701 | 35044 ft | 522 kts | 100° |
| 2026-04-26 00:58 | 25.04212 | 122.94661 | 35034 ft | 522 kts | 101° |
| 2026-04-26 00:58 | 25.03412 | 123.02619 | 35042 ft | 522 kts | 101° |
| 2026-04-26 00:59 | 25.02614 | 123.10524 | 35048 ft | 522 kts | 101° |
| 2026-04-26 00:59 | 25.01813 | 123.18535 | 35023 ft | 522 kts | 102° |
| 2026-04-26 01:00 | 25.01015 | 123.26438 | 35038 ft | 522 kts | 102° |
| 2026-04-26 01:00 | 25.00204 | 123.34391 | 35043 ft | 522 kts | 102° |
| 2026-04-26 01:01 | 24.99382 | 123.42343 | 35047 ft | 522 kts | 102° |
| 2026-04-26 01:01 | 24.98561 | 123.50305 | 35050 ft | 522 kts | 102° |
| 2026-04-26 01:02 | 24.97742 | 123.58258 | 35051 ft | 522 kts | 102° |
| 2026-04-26 01:02 | 24.96915 | 123.66214 | 35052 ft | 522 kts | 102° |
| 2026-04-26 01:03 | 24.96085 | 123.74165 | 35041 ft | 522 kts | 102° |
| 2026-04-26 01:03 | 24.95247 | 123.82105 | 35083 ft | 522 kts | 102° |
| 2026-04-26 01:04 | 24.94404 | 123.90039 | 35068 ft | 521 kts | 102° |
| 2026-04-26 01:04 | 24.93556 | 123.97966 | 35035 ft | 521 kts | 103° |
| 2026-04-26 01:05 | 24.92684 | 124.05877 | 35044 ft | 520 kts | 103° |
| 2026-04-26 01:05 | 24.91752 | 124.13772 | 35047 ft | 520 kts | 104° |
| 2026-04-26 01:06 | 24.90808 | 124.21660 | 35021 ft | 520 kts | 104° |
| 2026-04-26 01:06 | 24.89879 | 124.29541 | 35048 ft | 518 kts | 104° |
| 2026-04-26 01:07 | 24.88948 | 124.37406 | 35050 ft | 517 kts | 104° |
| 2026-04-26 01:07 | 24.88014 | 124.45259 | 35050 ft | 517 kts | 104° |
| 2026-04-26 01:08 | 24.87078 | 124.53092 | 35041 ft | 515 kts | 104° |
| 2026-04-26 01:08 | 24.86143 | 124.60906 | 35050 ft | 514 kts | 104° |
| 2026-04-26 01:09 | 24.85211 | 124.68653 | 35052 ft | 514 kts | 104° |
| 2026-04-26 01:09 | 24.84267 | 124.76445 | 35025 ft | 513 kts | 104° |
| 2026-04-26 01:10 | 24.83313 | 124.84219 | 35037 ft | 512 kts | 104° |
| 2026-04-26 01:10 | 24.82361 | 124.91991 | 35042 ft | 512 kts | 104° |
| 2026-04-26 01:11 | 24.81412 | 124.99755 | 35017 ft | 512 kts | 104° |
| 2026-04-26 01:11 | 24.80463 | 125.07511 | 35032 ft | 511 kts | 104° |
| 2026-04-26 01:12 | 24.79506 | 125.15260 | 35035 ft | 511 kts | 105° |
| 2026-04-26 01:12 | 24.78699 | 125.23040 | 35039 ft | 517 kts | 96° |
| 2026-04-26 01:13 | 24.79673 | 125.30960 | 35012 ft | 530 kts | 76° |
| 2026-04-26 01:13 | 24.82838 | 125.38311 | 35038 ft | 535 kts | 59° |
| 2026-04-26 01:14 | 24.86794 | 125.45256 | 35026 ft | 535 kts | 59° |
| 2026-04-26 01:14 | 24.90733 | 125.52223 | 34993 ft | 536 kts | 59° |
| 2026-04-26 01:15 | 24.94661 | 125.59201 | 35000 ft | 536 kts | 59° |
| 2026-04-26 01:15 | 24.98571 | 125.66142 | 35038 ft | 537 kts | 59° |
| 2026-04-26 01:16 | 25.02513 | 125.73135 | 35040 ft | 537 kts | 59° |
| 2026-04-26 01:16 | 25.06450 | 125.80127 | 35010 ft | 537 kts | 59° |
| 2026-04-26 01:17 | 25.10389 | 125.87124 | 35015 ft | 537 kts | 59° |
| 2026-04-26 01:17 | 25.14322 | 125.94133 | 35017 ft | 537 kts | 59° |
| 2026-04-26 01:18 | 25.18247 | 126.01154 | 35049 ft | 537 kts | 60° |
| 2026-04-26 01:18 | 25.22169 | 126.08170 | 35042 ft | 537 kts | 60° |
| 2026-04-26 01:19 | 25.24130 | 126.11676 | 34927 ft | 536 kts | 60° |
| 2026-04-26 01:19 | 25.26086 | 126.15176 | 34689 ft | 535 kts | 60° |
| 2026-04-26 01:19 | 25.28034 | 126.18668 | 34458 ft | 534 kts | 60° |
| 2026-04-26 01:19 | 25.29978 | 126.22160 | 34231 ft | 533 kts | 60° |
| 2026-04-26 01:20 | 25.31263 | 126.24470 | 33972 ft | 533 kts | 60° |
| 2026-04-26 01:20 | 25.33220 | 126.27989 | 32712 ft | 544 kts | 60° |
| 2026-04-26 01:20 | 25.35212 | 126.31572 | 31684 ft | 550 kts | 60° |
| 2026-04-26 01:20 | 25.37219 | 126.35183 | 30956 ft | 549 kts | 59° |
| 2026-04-26 01:21 | 25.39215 | 126.38770 | 30274 ft | 546 kts | 59° |
| 2026-04-26 01:21 | 25.41183 | 126.42309 | 29513 ft | 534 kts | 59° |
| 2026-04-26 01:21 | 25.43100 | 126.45763 | 28771 ft | 518 kts | 59° |
| 2026-04-26 01:21 | 25.44955 | 126.49108 | 28125 ft | 502 kts | 60° |
| 2026-04-26 01:22 | 25.46755 | 126.52356 | 27477 ft | 488 kts | 60° |
| 2026-04-26 01:22 | 25.48520 | 126.55548 | 26978 ft | 485 kts | 60° |
| 2026-04-26 01:22 | 25.50269 | 126.58726 | 26390 ft | 483 kts | 60° |
| 2026-04-26 01:22 | 25.52010 | 126.61895 | 25857 ft | 480 kts | 60° |
| 2026-04-26 01:23 | 25.53739 | 126.65048 | 25322 ft | 478 kts | 60° |
| 2026-04-26 01:23 | 25.55459 | 126.68184 | 24805 ft | 475 kts | 60° |
| 2026-04-26 01:23 | 25.57169 | 126.71305 | 24290 ft | 473 kts | 60° |
| 2026-04-26 01:23 | 25.58869 | 126.74410 | 23795 ft | 470 kts | 60° |
| 2026-04-26 01:24 | 25.60557 | 126.77499 | 23253 ft | 467 kts | 60° |
| 2026-04-26 01:24 | 25.62230 | 126.80560 | 22761 ft | 462 kts | 60° |
| 2026-04-26 01:24 | 25.63890 | 126.83594 | 22293 ft | 458 kts | 60° |
| 2026-04-26 01:24 | 25.65534 | 126.86596 | 21831 ft | 454 kts | 60° |
| 2026-04-26 01:25 | 25.67169 | 126.89582 | 21335 ft | 451 kts | 60° |
| 2026-04-26 01:25 | 25.68789 | 126.92546 | 20857 ft | 449 kts | 60° |
| 2026-04-26 01:25 | 25.70400 | 126.95495 | 20353 ft | 446 kts | 59° |
| 2026-04-26 01:25 | 25.72002 | 126.98430 | 19844 ft | 444 kts | 59° |
| 2026-04-26 01:26 | 25.73595 | 127.01349 | 19320 ft | 441 kts | 59° |
| 2026-04-26 01:26 | 25.75178 | 127.04256 | 18802 ft | 439 kts | 59° |
| 2026-04-26 01:26 | 25.76753 | 127.07149 | 18266 ft | 438 kts | 59° |
| 2026-04-26 01:26 | 25.78300 | 127.09997 | 17695 ft | 435 kts | 59° |
| 2026-04-26 01:27 | 25.79844 | 127.12841 | 17156 ft | 423 kts | 59° |
| 2026-04-26 01:27 | 25.81326 | 127.15577 | 16645 ft | 405 kts | 59° |
| 2026-04-26 01:27 | 25.82761 | 127.18230 | 16148 ft | 399 kts | 59° |
| 2026-04-26 01:27 | 25.84188 | 127.20862 | 15644 ft | 397 kts | 59° |
| 2026-04-26 01:28 | 25.85609 | 127.23479 | 15141 ft | 395 kts | 59° |
| 2026-04-26 01:28 | 25.87023 | 127.26064 | 14633 ft | 385 kts | 56° |
| 2026-04-26 01:28 | 25.88670 | 127.28326 | 14154 ft | 370 kts | 43° |
| 2026-04-26 01:28 | 25.90658 | 127.30116 | 13664 ft | 367 kts | 31° |
| 2026-04-26 01:29 | 25.92946 | 127.31428 | 12851 ft | 374 kts | 17° |
| 2026-04-26 01:29 | 25.95459 | 127.32172 | 12264 ft | 371 kts | 6° |
| 2026-04-26 01:29 | 25.97940 | 127.32679 | 12127 ft | 353 kts | 7° |
| 2026-04-26 01:29 | 26.00287 | 127.33193 | 12007 ft | 336 kts | 9° |
| 2026-04-26 01:30 | 26.02416 | 127.34099 | 11843 ft | 324 kts | 31° |
| 2026-04-26 01:30 | 26.04063 | 127.35762 | 11387 ft | 319 kts | 54° |
| 2026-04-26 01:30 | 26.05005 | 127.37959 | 10820 ft | 314 kts | 78° |
| 2026-04-26 01:30 | 26.05144 | 127.40342 | 10245 ft | 307 kts | 101° |
| 2026-04-26 01:31 | 26.04529 | 127.42565 | 9674 ft | 298 kts | 121° |
| 2026-04-26 01:31 | 26.03534 | 127.44580 | 9001 ft | 297 kts | 123° |
| 2026-04-26 01:31 | 26.02532 | 127.46583 | 8366 ft | 296 kts | 122° |
| 2026-04-26 01:31 | 26.01527 | 127.48582 | 7726 ft | 298 kts | 122° |
| 2026-04-26 01:32 | 26.00513 | 127.50592 | 7381 ft | 297 kts | 121° |
| 2026-04-26 01:32 | 25.99496 | 127.52609 | 6675 ft | 302 kts | 120° |
| 2026-04-26 01:32 | 25.98461 | 127.54652 | 5883 ft | 306 kts | 120° |
| 2026-04-26 01:32 | 25.97750 | 127.56876 | 5088 ft | 309 kts | 91° |
| 2026-04-26 01:33 | 25.98105 | 127.59175 | 4275 ft | 301 kts | 59° |
| 2026-04-26 01:33 | 25.99415 | 127.60882 | 3502 ft | 287 kts | 31° |
| 2026-04-26 01:33 | 26.01131 | 127.61921 | 2923 ft | 273 kts | 23° |
| 2026-04-26 01:33 | 26.02756 | 127.62853 | 2726 ft | 252 kts | 24° |
| 2026-04-26 01:34 | 26.04260 | 127.63685 | 2565 ft | 230 kts | 17° |
| 2026-04-26 01:34 | 26.05767 | 127.63928 | 2349 ft | 212 kts | 357° |
| 2026-04-26 01:34 | 26.07192 | 127.63860 | 2093 ft | 198 kts | 356° |
| 2026-04-26 01:34 | 26.08497 | 127.63798 | 1865 ft | 180 kts | 355° |
| 2026-04-26 01:35 | 26.09664 | 127.63743 | 1654 ft | 153 kts | 355° |
| 2026-04-26 01:35 | 26.10699 | 127.63694 | 1434 ft | 148 kts | 355° |
| 2026-04-26 01:35 | 26.11706 | 127.63646 | 1240 ft | 142 kts | 355° |
| 2026-04-26 01:35 | 26.12674 | 127.63600 | 1057 ft | 139 kts | 355° |
| 2026-04-26 01:36 | 26.13648 | 127.63554 | 869 ft | 139 kts | 358° |
| 2026-04-26 01:36 | 26.14619 | 127.63508 | 686 ft | 139 kts | 358° |
| 2026-04-26 01:36 | 26.15621 | 127.63460 | 485 ft | 149 kts | 357° |
| 2026-04-26 01:37 | 26.17658 | 127.63369 | 121 ft | 139 kts | 360° |
| 2026-04-26 01:37 | 26.18616 | 127.63315 | 18 ft | 130 kts | 0° |
| 2026-04-26 01:37 | 26.19312 | 127.63293 | 16 ft | 67 kts | 355° |
| 2026-04-26 01:37 | 26.19639 | 127.63292 | 19 ft | 39 kts | 14° |
| 2026-04-26 01:38 | 26.19860 | 127.63405 | 18 ft | 32 kts | 30° |
| 2026-04-26 01:38 | 26.20029 | 127.63451 | 17 ft | 22 kts | 2° |
| 2026-04-26 01:38 | 26.20170 | 127.63438 | 17 ft | 19 kts | 9° |
| 2026-04-26 01:38 | 26.20226 | 127.63480 | 17 ft | 4 kts | 95° |
| 2026-04-26 01:39 | 26.20223 | 127.63515 | 17 ft | 5 kts | 96° |
| 2026-04-26 01:39 | 26.20219 | 127.63572 | 18 ft | 10 kts | 92° |
| 2026-04-26 01:39 | 26.20222 | 127.63669 | 18 ft | 15 kts | 88° |
| 2026-04-26 01:39 | 26.20228 | 127.63802 | 17 ft | 19 kts | 87° |
| 2026-04-26 01:40 | 26.20233 | 127.63968 | 17 ft | 24 kts | 87° |
| 2026-04-26 01:40 | 26.20241 | 127.64164 | 17 ft | 27 kts | 87° |
| 2026-04-26 01:40 | 26.20268 | 127.64313 | 17 ft | 15 kts | 34° |
| 2026-04-26 01:40 | 26.20334 | 127.64379 | 17 ft | 13 kts | 77° |
| 2026-04-26 01:41 | 26.20339 | 127.64473 | 18 ft | 12 kts | 88° |
| 2026-04-26 01:41 | 26.20343 | 127.64597 | 18 ft | 22 kts | 88° |
| 2026-04-26 01:41 | 26.20443 | 127.64707 | 17 ft | 21 kts | 26° |
| 2026-04-26 01:41 | 26.20570 | 127.64748 | 17 ft | 18 kts | 0° |
| 2026-04-26 01:42 | 26.20691 | 127.64743 | 17 ft | 17 kts | 357° |
| 2026-04-26 01:42 | 26.20809 | 127.64735 | 20 ft | 17 kts | 357° |
| 2026-04-26 01:42 | 26.20902 | 127.64776 | 19 ft | 13 kts | 58° |
| 2026-04-26 01:42 | 26.20928 | 127.64866 | 22 ft | 11 kts | 51° |
| 2026-04-26 01:43 | 26.20995 | 127.64893 | 20 ft | 8 kts | 30° |
| 2026-04-26 01:43 | 26.21003 | 127.64920 | 21 ft | 2 kts | 85° |
| 2026-04-26 01:43 | 26.21005 | 127.64937 | 21 ft | 3 kts | 76° |
| 2026-04-26 01:43 | 26.21006 | 127.64972 | 21 ft | 6 kts | 87° |
| 2026-04-26 01:44 | 26.21007 | 127.64980 | 21 ft | 0 kts | 87° |